Airfield :
LOGIN :

Register | Disclaimer

   EN    FR    IT 

 










Legend :    VFR   Marginal VFR   IFR   Intensive IFR   Very Intensive IFR
Visi :
Ceiling :
>= 8 km
>= 3000ft
5 to 8 km
1000 to 3000 ft
1500m to 5 km
500 to 1000 ft
800 to 1500m
200 to 500 ft
< 800m
< 200 ft
Symbols :   Thunderstorms  Fog  Heavy snow  Heavy precipitations  Wind > 20 kt
SIGMETs :     Misc.  Thunderstorms  Icing  Turbulence  Mountain Waves  Volcanic Ashes







- Airport Elevation : -15 ft
- IATA code : RTM


EHRD - Rotterdam Zestienhoven

CURRENT METAR :
  • 251825Z AUTO 27006KT 240V310 9999 FEW030 06/01 Q1010 NOSIG

EXPIRED METARs :
  • 251755Z AUTO 28007KT 230V320 9999 FEW033 07/01 Q1010 NOSIG
  • 251725Z AUTO 30010KT 260V350 9999 SCT030 SCT036 08/01 Q1010 NOSIG
  • 251655Z AUTO 29011KT 240V330 9999 SCT030 BKN034 08/02 Q1011 NOSIG
  • 251625Z AUTO 29014KT 240V330 9999 NSC 08/01 Q1011 NOSIG
  • 251555Z AUTO 29015KT 240V330 9999 SCT028 BKN031 BKN047 07/02 Q1011 NOSIG
  • 251525Z AUTO 29013KT 240V350 9999 FEW029 SCT034 09/02 Q1011 NOSIG

TAF TAF EHRD
Valid from the 25 at 18:00 until the 27 at 00:00 UTC


251701Z 2518/2624 28015KT 9999 SCT025
BECMG 2520/2523 30005KT
PROB30
TEMPO 2609/2617 33015G25KT 7000 -SHRAGS SCT022CB
BECMG 2609/2612 34012KT
BECMG 2618/2621 35005KT
No reported NOTAMs for that airfield.



MET'MAP, your aeronautical weather chart ! - Copyright ORBIFLY December 2007 - Disclaimer

ORBIFLY MET'MAP TEAM :

Programming & Development : Alexandra Zaïnal
Concept & Development : Baudouin d'Aumeries
Co-Development & Prog : Marc-Olivier Méhu
Technical & hardware support : Manuel Goepfert

Contact : metmap@orbifly.com




SOURCES & CREDITS :

   NOAA